« 定点 富山空港 2024/4/14 sun | トップページ | 趣味的航空路誌改訂情報 2024/4/18 thu »

2024/04/15

定点 富山空港 2024/4/15 mon

今日も穏やかな暖かい日和。アルペンルートが全通して、いよいよ春山シーズン。なお今日は、「ヘリコプターの日」でもあるそうだ。

RJNT 150100Z 34007KT 320V030 CAVOK 23/12 Q1019

20240415_rjnt_00ja6517

JA6517 AS350B3 AKF

新潟ベースの北陸NNN系取材機。山を見た後に、震災関係取材ですかね。

20240415_rjnt_01ja63nh

JA63NH↓ AS365N2 ANH

そろそろ更新の最古参の機体がやってきました。

RJNT 150200Z 34006KT CAVOK 23/11 Q1018

20240415_rjnt_02ja85an

20240415_rjnt_03ja85an

ANA315 RJTT-RJNT JA85AN B737-881

20240415_rjnt_04ja6517

JA6517↓

20240415_rjnt_05toyama

ターミナル前は観光バスで溢れています。

20240415_rjnt_06toyama

国際線出口には、チューりっふのPR

20240415_rjnt_07ja63nh

JA63NH

20240415_rjnt_08ja85an

同じ青

20240415_rjnt_09ja6517

JA6517

20240415_rjnt_10ja63nh

名古屋へお帰りです。

20240415_rjnt_11ja63nh

JA63NH↑

20240415_rjnt_12ja65an

ダイナさんが進入中で間隔調整

20240415_rjnt_13b18653

ライトブレイク

RJNT 150300Z 01007KT CAVOK 22/11 Q1018

20240415_rjnt_14ja65an

ダウンウインドのダイナさんを横目に離陸です。

20240415_rjnt_15ja65an

ANA316 RJNT-RJTT JA85AN B737-881

20240415_rjnt_16b18653
20240415_rjnt_17b18653

この春シーズン最初のチャーターです。

20240415_rjnt_18b18653

CAL2170 RCTP-RJNT B-18653 B737-8Q8

20240415_rjnt_19b18653

さくらに間に合いました。

20240415_rjnt_20b18653

富山にようこそ

20240415_rjnt_21ja173b

JA173B← BK173C-2 THK 富山県ドクターヘリ 南砺方面へ

20240415_rjnt_22ja173b

JA173B→ 現場到着前にキャンセルされて戻ってきました。

20240415_rjnt_23ja60an

20240415_rjnt_24ja60an

ANA1182 RJCC-RJNT JA60AN B737-881

20240415_rjnt_25ja60an

B3同志は、日常が帰ってきたよいな風景

20240415_rjnt_26ja60an
20240415_rjnt_27toyama

ターミナルの宣伝は砺波チューリップフェア

RJNT 150400Z 34005KT CAVOK 24/10 Q1017

20240415_rjnt_28ja60an
20240415_rjnt_29ja60an

ANA1181 RJNT-RJCC JA60AN B737-881

20240415_rjnt_30ja6517

JA6517↑ 新潟にお帰りの模様

20240415_rjnt_31b18653
20240415_rjnt_32b18653
20240415_rjnt_33b18653

CAL2171 RJNT-RCTP B-18653 B737-8Q8

20240415_rjnt_34b18653

ダイナさんは、明日も来ます。

20240415_rjnt_35ja139t

JA139T↑ AW139 富山県警察

|

« 定点 富山空港 2024/4/14 sun | トップページ | 趣味的航空路誌改訂情報 2024/4/18 thu »

富山空港」カテゴリの記事

コメント

コメントを書く



(ウェブ上には掲載しません)


コメントは記事投稿者が公開するまで表示されません。



« 定点 富山空港 2024/4/14 sun | トップページ | 趣味的航空路誌改訂情報 2024/4/18 thu »